This is the latest recevied weather packets stored in our database for station/object KE9ADS. If no packets are shown the sender has not sent any weather packets the latest 1 day(s).
| Time | Temp. | Humidity | Pressure | Rain* | Wind** | Luminosity | Snow |
|---|---|---|---|---|---|---|---|
| 1836274377 | 20.56° C | 83% | 1019 hPa | 0 mm | 0 m/s | 0 W/m² | - |
| 1836274230 | 20.56° C | 84% | 1019 hPa | 0 mm | 0 m/s | 0 W/m² | - |
| 1778050985 | 7.22° C | 62% | 1015.3 hPa | 0 mm | 0 m/s | 0 W/m² | - |
| 1778050379 | 7.78° C | 58% | 1015.4 hPa | 0 mm | 0 m/s | 0 W/m² | - |
| 1778049777 | 7.78° C | 58% | 1015.1 hPa | 0 mm | 0.45 m/s, 289° | 0 W/m² | - |
| 1778049172 | 7.78° C | 57% | 1015.3 hPa | 0 mm | 0 m/s | 0 W/m² | - |
| 1778048568 | 7.78° C | 57% | 1015.3 hPa | 0 mm | 0 m/s | 0 W/m² | - |
| 1778047967 | 8.33° C | 57% | 1015.1 hPa | 0 mm | 0 m/s | 0 W/m² | - |
| 1778047362 | 8.33° C | 55% | 1014.9 hPa | 0 mm | 0 m/s | 0 W/m² | - |
| 1778046761 | 8.33° C | 54% | 1015 hPa | 0 mm | 0 m/s | 0 W/m² | - |
| 1778046161 | 8.89° C | 55% | 1014.8 hPa | 0 mm | 0.45 m/s, 265° | 0 W/m² | - |
| 1778045557 | 8.89° C | 54% | 1015 hPa | 0 mm | 0 m/s | 0 W/m² | - |
| 1778044953 | 8.89° C | 52% | 1014.7 hPa | 0 mm | 0 m/s | 0 W/m² | - |
| 1778044351 | 9.44° C | 52% | 1014.7 hPa | 0 mm | 0 m/s | 0 W/m² | - |
| 1778043747 | 9.44° C | 51% | 1014.7 hPa | 0 mm | 0 m/s | 0 W/m² | - |
| 1778043145 | 10° C | 51% | 1014.5 hPa | 0 mm | 0 m/s | 0 W/m² | - |
| 1778042541 | 10° C | 50% | 1014.3 hPa | 0 mm | 0.45 m/s, 222° | 0 W/m² | - |
| 1778041935 | 10° C | 51% | 1014.2 hPa | 0 mm | 0.45 m/s, 248° | 0 W/m² | - |
| 1778041332 | 10° C | 52% | 1014.1 hPa | 0 mm | 0 m/s | 0 W/m² | - |
| 1778040727 | 10° C | 53% | 1014.1 hPa | 0 mm | 0.45 m/s, 244° | 0 W/m² | - |
| 1778040127 | 10.56° C | 53% | 1014 hPa | 0 mm | 0 m/s | 0 W/m² | - |
| 1778039527 | 10° C | 56% | 1014.1 hPa | 0 mm | 0 m/s | 0 W/m² | - |
| 1778038926 | 10° C | 60% | 1014 hPa | 0 mm | 0 m/s | 0 W/m² | - |
| 1778038326 | 10° C | 62% | 1014 hPa | 0 mm | 0 m/s | 0 W/m² | - |
| 1778037726 | 10° C | 59% | 1013.8 hPa | 0 mm | 0 m/s | 0 W/m² | - |
* Rain latest hour (hover to see other rain measurements)
** Current wind speed in m/s (hover to see current wind gust speed)